createdAt,value
2023-04-30T00:00:13.914Z,15.40
2023-04-30T00:03:05.724Z,15.80
2023-04-30T00:05:38.495Z,14.80
2023-04-30T00:08:19.738Z,14.90
2023-04-30T00:10:57.851Z,14.30
2023-04-30T00:13:27.349Z,14.90
2023-04-30T00:15:56.934Z,14.10
2023-04-30T00:18:34.235Z,14.70
2023-04-30T00:21:05.740Z,16.10
2023-04-30T00:23:37.885Z,14.90
2023-04-30T00:26:17.759Z,15.90
2023-04-30T00:28:54.368Z,14.90
2023-04-30T00:31:25.442Z,14.60
2023-04-30T00:33:57.659Z,15.70
2023-04-30T00:36:42.010Z,13.60
2023-04-30T00:39:13.966Z,15.80
2023-04-30T00:41:43.376Z,15.60
2023-04-30T00:44:12.473Z,15.00
2023-04-30T00:46:41.481Z,16.20
2023-04-30T00:49:10.573Z,15.20
2023-04-30T00:51:42.298Z,14.50
2023-04-30T00:54:20.932Z,16.70
2023-04-30T00:57:17.927Z,15.00
2023-04-30T00:59:47.160Z,15.60
2023-04-30T01:02:21.526Z,15.90
2023-04-30T01:05:00.317Z,16.30
2023-04-30T01:07:44.565Z,15.20
2023-04-30T01:10:23.889Z,15.20
2023-04-30T01:13:05.002Z,13.10
2023-04-30T01:16:34.814Z,13.70
2023-04-30T01:19:50.984Z,12.70
2023-04-30T01:22:32.382Z,12.40
2023-04-30T01:25:46.267Z,13.40
2023-04-30T01:28:24.531Z,12.80
2023-04-30T01:31:06.129Z,14.10
2023-04-30T01:33:35.315Z,11.80
2023-04-30T01:36:17.561Z,12.50
2023-04-30T01:39:10.920Z,13.90
2023-04-30T01:42:26.906Z,15.10
2023-04-30T01:45:52.251Z,14.70
2023-04-30T01:48:44.619Z,14.60
2023-04-30T01:51:40.040Z,13.20
2023-04-30T01:54:58.480Z,12.60
2023-04-30T01:57:46.013Z,12.50
2023-04-30T02:00:18.065Z,12.50
2023-04-30T02:02:51.507Z,12.10
2023-04-30T02:05:40.289Z,12.80
2023-04-30T02:08:16.126Z,12.70
2023-04-30T02:10:48.343Z,12.80
2023-04-30T02:13:22.463Z,12.80
2023-04-30T02:15:53.581Z,14.40
2023-04-30T02:18:22.562Z,14.80
2023-04-30T02:20:51.455Z,15.20
2023-04-30T02:23:25.713Z,15.40
2023-04-30T02:25:55.222Z,14.50
2023-04-30T02:28:24.285Z,15.40
2023-04-30T02:30:55.165Z,15.40
2023-04-30T02:33:26.676Z,14.80
2023-04-30T02:35:55.724Z,16.20
2023-04-30T02:38:26.931Z,18.00
2023-04-30T02:40:55.755Z,17.50
2023-04-30T02:43:26.857Z,18.10
2023-04-30T02:46:00.290Z,16.70
2023-04-30T02:48:31.632Z,15.30
2023-04-30T02:51:00.586Z,15.70
2023-04-30T02:53:35.018Z,15.30
2023-04-30T02:56:07.696Z,14.00
2023-04-30T02:58:41.164Z,14.70
2023-04-30T03:01:17.588Z,14.10
2023-04-30T03:03:55.880Z,14.20
2023-04-30T03:06:36.029Z,15.80
2023-04-30T03:09:06.708Z,15.00
2023-04-30T03:11:45.988Z,14.70
2023-04-30T03:14:48.349Z,14.80
2023-04-30T03:17:21.546Z,14.40
2023-04-30T03:20:03.464Z,15.40
2023-04-30T03:22:38.254Z,15.30
2023-04-30T03:25:13.803Z,15.40
2023-04-30T03:27:49.911Z,14.50
2023-04-30T03:30:22.532Z,15.10
2023-04-30T03:33:12.952Z,15.50
2023-04-30T03:35:57.825Z,16.30
2023-04-30T03:38:32.359Z,16.70
2023-04-30T03:41:07.168Z,15.90
2023-04-30T03:43:45.598Z,17.80
2023-04-30T03:46:21.761Z,16.80
2023-04-30T03:49:01.464Z,18.50
2023-04-30T03:51:41.787Z,17.10
2023-04-30T03:54:12.035Z,17.20
2023-04-30T03:56:52.647Z,16.00
2023-04-30T03:59:24.278Z,17.90
2023-04-30T04:01:58.242Z,16.30
2023-04-30T04:04:31.385Z,17.60
2023-04-30T04:07:15.486Z,15.90
2023-04-30T04:09:58.525Z,16.30
2023-04-30T04:12:33.563Z,15.60
2023-04-30T04:15:25.912Z,15.10
2023-04-30T04:18:01.730Z,14.90
2023-04-30T04:20:42.242Z,14.50
2023-04-30T04:23:32.454Z,15.60
2023-04-30T04:26:37.042Z,14.40
2023-04-30T04:29:19.345Z,13.90
2023-04-30T04:31:55.423Z,14.20
2023-04-30T04:34:43.832Z,15.00
2023-04-30T04:37:22.817Z,14.30
2023-04-30T04:40:10.323Z,14.30
2023-04-30T04:42:55.380Z,14.70
2023-04-30T04:45:31.500Z,14.50
2023-04-30T04:48:01.664Z,15.00
2023-04-30T04:50:34.313Z,15.70
2023-04-30T04:53:34.163Z,12.70
2023-04-30T04:56:07.130Z,11.90
2023-04-30T04:58:42.038Z,12.20
2023-04-30T05:01:30.437Z,12.10
2023-04-30T05:04:23.367Z,12.60
2023-04-30T05:07:07.743Z,12.10
2023-04-30T05:12:06.384Z,12.20
2023-04-30T05:14:41.139Z,11.20
2023-04-30T05:17:19.530Z,11.70
2023-04-30T05:19:50.538Z,10.90
2023-04-30T05:22:23.733Z,9.60
2023-04-30T05:24:56.490Z,10.30
2023-04-30T05:27:32.784Z,11.10
2023-04-30T05:30:04.906Z,11.30
2023-04-30T05:32:34.947Z,10.50
2023-04-30T05:35:08.233Z,10.70
2023-04-30T05:37:40.834Z,10.00
2023-04-30T05:40:30.392Z,11.00
2023-04-30T05:43:02.269Z,10.10
2023-04-30T05:45:52.217Z,10.70
2023-04-30T05:48:23.165Z,9.70
2023-04-30T05:50:55.852Z,9.10
2023-04-30T05:53:31.550Z,8.90
2023-04-30T05:56:06.936Z,9.20
2023-04-30T05:58:41.655Z,8.70
2023-04-30T06:01:14.943Z,7.80
2023-04-30T06:03:59.891Z,6.80
2023-04-30T06:06:32.820Z,6.10
2023-04-30T06:09:05.285Z,6.80
2023-04-30T06:11:34.505Z,7.60
2023-04-30T06:14:07.957Z,6.60
2023-04-30T06:16:41.768Z,6.00
2023-04-30T06:21:47.281Z,5.90
2023-04-30T06:24:16.650Z,5.90
2023-04-30T06:26:47.957Z,6.00
2023-04-30T06:29:18.156Z,10.80
2023-04-30T06:31:47.219Z,21.80
2023-04-30T06:34:18.983Z,8.20
2023-04-30T06:36:56.461Z,6.30
2023-04-30T06:39:26.640Z,5.80
2023-04-30T06:41:58.342Z,8.90
2023-04-30T06:44:32.956Z,5.80
2023-04-30T06:47:10.513Z,10.30
2023-04-30T06:52:17.624Z,6.20
2023-04-30T06:54:49.682Z,6.80
2023-04-30T06:57:19.394Z,7.20
2023-04-30T06:59:58.275Z,10.20
2023-04-30T07:02:45.396Z,6.30
2023-04-30T07:05:28.828Z,6.20
2023-04-30T07:08:06.620Z,6.00
2023-04-30T07:10:59.585Z,6.40
2023-04-30T07:13:33.998Z,7.30
2023-04-30T07:16:03.730Z,6.10
2023-04-30T07:18:41.345Z,5.40
2023-04-30T07:21:17.720Z,4.80
2023-04-30T07:23:59.039Z,3.60
2023-04-30T07:26:39.069Z,3.50
2023-04-30T07:29:31.729Z,3.10
2023-04-30T07:32:09.206Z,2.80
2023-04-30T07:34:46.081Z,3.10
2023-04-30T07:37:16.176Z,3.20
2023-04-30T07:39:59.587Z,3.50
2023-04-30T07:42:48.687Z,3.10
2023-04-30T07:45:34.678Z,7.90
2023-04-30T07:48:07.059Z,3.20
2023-04-30T07:50:40.728Z,2.70
2023-04-30T07:53:12.349Z,3.20
2023-04-30T07:55:41.122Z,2.80
2023-04-30T07:58:09.886Z,3.90
2023-04-30T08:00:38.619Z,4.30
2023-04-30T08:03:08.138Z,2.90
2023-04-30T08:05:36.847Z,3.30
2023-04-30T08:08:13.238Z,3.00
2023-04-30T08:10:42.251Z,3.30
2023-04-30T08:13:11.203Z,3.20
2023-04-30T08:15:40.187Z,3.50
2023-04-30T08:18:11.453Z,2.90
2023-04-30T08:20:40.979Z,2.80
2023-04-30T08:23:20.266Z,2.80
2023-04-30T08:25:57.198Z,4.50
2023-04-30T08:28:46.991Z,3.20
2023-04-30T08:31:45.023Z,2.30
2023-04-30T08:34:25.596Z,3.10
2023-04-30T08:37:00.503Z,2.00
2023-04-30T08:43:45.854Z,2.60
2023-04-30T08:47:05.616Z,2.80
2023-04-30T08:50:09.547Z,2.50
2023-04-30T08:52:40.176Z,2.70
2023-04-30T08:55:17.038Z,3.30
2023-04-30T08:58:02.123Z,2.70
2023-04-30T09:00:41.100Z,2.90
2023-04-30T09:03:23.382Z,1.80
2023-04-30T09:06:00.966Z,2.30
2023-04-30T09:08:58.445Z,2.80
2023-04-30T09:11:37.578Z,2.80
2023-04-30T09:14:27.474Z,2.40
2023-04-30T09:17:35.901Z,5.10
2023-04-30T09:20:30.124Z,2.40
2023-04-30T09:23:23.157Z,2.90
2023-04-30T09:26:06.540Z,2.30
2023-04-30T09:28:41.690Z,2.30
2023-04-30T09:31:29.657Z,3.60
2023-04-30T09:37:12.456Z,2.50
2023-04-30T09:39:57.765Z,3.20
2023-04-30T09:42:27.239Z,3.00
2023-04-30T09:45:13.338Z,3.30
2023-04-30T09:47:42.809Z,4.40
2023-04-30T09:50:13.954Z,5.10
2023-04-30T09:52:54.165Z,2.60
2023-04-30T09:55:23.618Z,3.10
2023-04-30T10:01:16.428Z,2.30
2023-04-30T10:03:52.626Z,2.80
2023-04-30T10:06:35.168Z,2.60
2023-04-30T10:09:30.512Z,2.40
2023-04-30T10:12:20.158Z,2.10
2023-04-30T10:15:32.332Z,2.20
2023-04-30T10:18:26.559Z,2.90
2023-04-30T10:21:31.216Z,2.00
2023-04-30T10:24:42.033Z,2.70
2023-04-30T10:27:19.972Z,2.20
2023-04-30T10:30:09.405Z,2.10
2023-04-30T10:33:52.604Z,2.60
2023-04-30T10:37:02.271Z,2.40
2023-04-30T10:39:49.366Z,5.10
2023-04-30T10:45:10.414Z,3.00
2023-04-30T10:47:58.013Z,3.70
2023-04-30T10:50:32.337Z,2.80
2023-04-30T10:53:07.464Z,3.00
2023-04-30T10:56:11.579Z,3.00
2023-04-30T10:58:46.093Z,2.70
2023-04-30T11:01:25.977Z,2.60
2023-04-30T11:04:27.369Z,2.90
2023-04-30T11:07:15.117Z,3.70
2023-04-30T11:10:08.613Z,2.70
2023-04-30T11:12:48.398Z,3.60
2023-04-30T11:15:44.478Z,3.20
2023-04-30T11:18:21.640Z,3.10
2023-04-30T11:21:13.019Z,3.10
2023-04-30T11:24:17.351Z,3.10
2023-04-30T11:27:08.136Z,2.70
2023-04-30T11:29:46.584Z,2.90
2023-04-30T11:32:22.750Z,3.10
2023-04-30T11:34:54.416Z,3.50
2023-04-30T11:37:42.773Z,3.30
2023-04-30T11:40:31.340Z,3.10
2023-04-30T11:43:29.056Z,3.00
2023-04-30T11:46:20.599Z,2.90
2023-04-30T11:48:49.583Z,3.80
2023-04-30T11:51:24.723Z,3.50
2023-04-30T11:53:58.200Z,3.50
2023-04-30T11:56:27.549Z,3.30
2023-04-30T12:00:35.985Z,5.40
2023-04-30T12:03:47.193Z,2.70
2023-04-30T12:06:52.825Z,2.60
2023-04-30T12:09:55.737Z,2.70
2023-04-30T12:12:54.872Z,2.70
2023-04-30T12:15:39.367Z,2.70
2023-04-30T12:18:17.100Z,3.30
2023-04-30T12:20:45.825Z,3.70
2023-04-30T12:23:17.507Z,2.40
2023-04-30T12:25:59.114Z,3.20
2023-04-30T12:28:40.751Z,3.10
2023-04-30T12:31:19.243Z,3.00
2023-04-30T12:34:12.806Z,2.80
2023-04-30T12:36:59.723Z,2.90
2023-04-30T12:40:10.747Z,3.10
2023-04-30T12:42:43.740Z,9.40
2023-04-30T12:45:50.769Z,6.40
2023-04-30T12:48:23.035Z,13.20
2023-04-30T12:51:05.329Z,4.10
2023-04-30T12:53:34.633Z,2.90
2023-04-30T12:56:31.621Z,3.50
2023-04-30T12:59:14.055Z,13.20
2023-04-30T13:01:46.171Z,4.30
2023-04-30T13:04:23.451Z,3.30
2023-04-30T13:06:57.283Z,3.20
2023-04-30T13:09:38.784Z,3.30
2023-04-30T13:12:22.751Z,3.20
2023-04-30T13:15:02.971Z,3.10
2023-04-30T13:18:12.737Z,4.80
2023-04-30T13:20:43.730Z,3.40
2023-04-30T13:23:18.210Z,3.70
2023-04-30T13:25:53.723Z,3.00
2023-04-30T13:28:25.531Z,4.60
2023-04-30T13:30:58.213Z,2.90
2023-04-30T13:33:34.306Z,3.20
2023-04-30T13:36:07.482Z,8.40
2023-04-30T13:38:41.840Z,3.50
2023-04-30T13:41:23.842Z,3.40
2023-04-30T13:43:56.183Z,3.20
2023-04-30T13:46:32.989Z,3.70
2023-04-30T13:49:11.458Z,3.20
2023-04-30T13:51:40.141Z,3.20
2023-04-30T13:54:11.687Z,2.90
2023-04-30T13:57:22.721Z,2.50
2023-04-30T14:00:15.579Z,3.10
2023-04-30T14:02:53.069Z,3.40
2023-04-30T14:05:47.199Z,3.10
2023-04-30T14:08:25.663Z,2.90
2023-04-30T14:11:21.999Z,2.40
2023-04-30T14:14:27.950Z,2.80
2023-04-30T14:17:06.329Z,1.80
2023-04-30T14:20:09.886Z,2.20
2023-04-30T14:22:48.631Z,2.70
2023-04-30T14:25:29.493Z,2.70
2023-04-30T14:28:20.607Z,3.10
2023-04-30T14:31:29.631Z,2.80
2023-04-30T14:34:28.991Z,2.50
2023-04-30T14:37:05.838Z,3.90
2023-04-30T14:39:57.719Z,2.70
2023-04-30T14:43:13.569Z,2.50
2023-04-30T14:46:02.693Z,2.30
2023-04-30T14:48:46.871Z,2.30
2023-04-30T14:51:22.942Z,3.00
2023-04-30T14:53:59.832Z,2.70
2023-04-30T15:00:09.461Z,5.70
2023-04-30T15:02:54.782Z,4.70
2023-04-30T15:05:36.213Z,3.00
2023-04-30T15:08:33.813Z,3.40
2023-04-30T15:11:24.004Z,3.20
2023-04-30T15:13:56.790Z,2.50
2023-04-30T15:19:10.804Z,3.10
2023-04-30T15:21:48.842Z,2.80
2023-04-30T15:24:23.782Z,2.10
2023-04-30T15:27:06.225Z,2.40
2023-04-30T15:29:45.310Z,3.00
2023-04-30T15:32:21.152Z,9.90
2023-04-30T15:34:56.585Z,3.70
2023-04-30T15:37:28.020Z,3.20
2023-04-30T15:40:22.201Z,3.20
2023-04-30T15:43:05.697Z,3.40
2023-04-30T15:45:38.582Z,2.70
2023-04-30T15:48:13.807Z,2.80
2023-04-30T15:50:53.297Z,2.30
2023-04-30T15:53:26.619Z,2.80
2023-04-30T15:55:58.734Z,9.20
2023-04-30T15:58:31.519Z,5.50
2023-04-30T16:01:01.755Z,2.40
2023-04-30T16:03:31.236Z,3.20
2023-04-30T16:06:03.616Z,2.60
2023-04-30T16:08:33.971Z,2.40
2023-04-30T16:11:06.402Z,2.90
2023-04-30T16:13:49.911Z,2.60
2023-04-30T16:16:27.350Z,2.10
2023-04-30T16:19:13.306Z,16.50
2023-04-30T16:21:50.426Z,22.90
2023-04-30T16:24:28.832Z,4.30
2023-04-30T16:26:58.386Z,2.50
2023-04-30T16:29:42.229Z,2.70
2023-04-30T16:32:14.050Z,3.90
2023-04-30T16:34:50.065Z,3.20
2023-04-30T16:37:32.709Z,2.90
2023-04-30T16:40:18.592Z,3.30
2023-04-30T16:43:41.568Z,2.70
2023-04-30T16:47:03.494Z,2.80
2023-04-30T16:50:33.280Z,3.40
2023-04-30T16:53:17.327Z,4.70
2023-04-30T16:56:07.131Z,3.10
2023-04-30T17:02:00.577Z,2.50
2023-04-30T17:04:44.277Z,3.50
2023-04-30T17:08:13.259Z,3.50
2023-04-30T17:10:43.088Z,3.50
2023-04-30T17:13:18.499Z,2.60
2023-04-30T17:16:03.432Z,18.90
2023-04-30T17:18:40.471Z,7.20
2023-04-30T17:21:11.680Z,4.40
2023-04-30T17:24:01.993Z,4.10
2023-04-30T17:26:31.775Z,4.00
2023-04-30T17:29:16.475Z,3.80
2023-04-30T17:31:49.962Z,5.40
2023-04-30T17:34:24.658Z,6.20
2023-04-30T17:37:01.052Z,7.40
2023-04-30T17:39:39.966Z,8.00
2023-04-30T17:42:08.421Z,8.00
2023-04-30T17:45:08.132Z,9.30
2023-04-30T17:48:40.064Z,9.60
2023-04-30T17:51:34.467Z,96.30
2023-04-30T17:54:30.475Z,26.60
2023-04-30T18:01:27.581Z,7.00
2023-04-30T18:41:38.583Z,21.40
2023-04-30T18:47:46.470Z,42.10
2023-04-30T18:52:09.688Z,37.20
2023-04-30T18:58:59.553Z,33.90
2023-04-30T19:01:57.700Z,28.40
2023-04-30T19:07:44.472Z,24.50
2023-04-30T19:11:06.900Z,25.50
2023-04-30T19:17:10.582Z,25.40
2023-04-30T19:20:05.410Z,24.60
2023-04-30T19:23:01.059Z,26.90
2023-04-30T19:26:08.128Z,27.50
2023-04-30T19:28:37.187Z,27.70
2023-04-30T19:31:12.327Z,28.70
2023-04-30T19:33:56.655Z,32.20
2023-04-30T19:36:43.815Z,29.40
2023-04-30T19:40:03.650Z,29.50
2023-04-30T19:42:57.487Z,29.60
2023-04-30T19:45:55.666Z,30.80
2023-04-30T19:48:30.994Z,35.50
2023-04-30T19:51:10.949Z,37.50
2023-04-30T19:53:51.921Z,33.90
2023-04-30T19:57:26.322Z,33.60
2023-04-30T20:01:05.970Z,35.00
2023-04-30T20:03:49.670Z,36.00
2023-04-30T20:06:20.725Z,35.20
2023-04-30T20:08:55.861Z,37.00
2023-04-30T20:11:35.919Z,35.00
2023-04-30T20:14:12.761Z,32.40
2023-04-30T20:16:46.347Z,36.20
2023-04-30T20:19:45.922Z,37.00
2023-04-30T20:22:19.268Z,54.20
2023-04-30T20:25:09.746Z,52.30
2023-04-30T20:27:42.614Z,48.90
2023-04-30T20:30:20.345Z,45.10
2023-04-30T20:33:01.882Z,45.00
2023-04-30T20:36:11.671Z,46.60
2023-04-30T20:39:10.274Z,42.90
2023-04-30T20:42:21.889Z,44.80
2023-04-30T20:45:10.738Z,46.40
2023-04-30T20:47:51.454Z,50.40
2023-04-30T20:50:38.740Z,47.30
2023-04-30T20:53:17.051Z,44.90
2023-04-30T20:56:44.746Z,48.60
2023-04-30T20:59:34.008Z,50.00
2023-04-30T21:02:27.775Z,48.10
2023-04-30T21:05:17.234Z,47.20
2023-04-30T21:08:02.655Z,47.00
2023-04-30T21:10:44.398Z,45.60
2023-04-30T21:13:34.300Z,46.10
2023-04-30T21:16:19.001Z,49.20
2023-04-30T21:19:36.695Z,48.00
2023-04-30T21:26:41.132Z,53.70
2023-04-30T21:29:36.405Z,50.00
2023-04-30T21:33:00.770Z,52.80
2023-04-30T21:35:45.504Z,52.90
2023-04-30T21:38:35.182Z,55.50
2023-04-30T21:42:02.057Z,53.60
2023-04-30T21:44:59.162Z,49.40
2023-04-30T21:48:08.092Z,52.30
2023-04-30T21:51:24.728Z,51.50
2023-04-30T21:54:19.400Z,49.20
2023-04-30T21:57:06.236Z,49.90
2023-04-30T21:59:44.015Z,49.30
2023-04-30T22:02:47.663Z,49.10
2023-04-30T22:12:32.190Z,56.20
2023-04-30T22:15:23.194Z,58.30
2023-04-30T22:18:48.052Z,52.70
2023-04-30T22:21:27.417Z,50.40
2023-04-30T22:24:55.573Z,54.50
2023-04-30T22:28:32.320Z,49.50
2023-04-30T22:31:56.890Z,54.40
2023-04-30T22:35:14.079Z,63.30
2023-04-30T22:38:03.340Z,60.90
2023-04-30T22:41:04.392Z,59.70
2023-04-30T22:43:36.726Z,57.70
2023-04-30T22:50:18.113Z,51.70
2023-04-30T22:53:39.008Z,50.90
2023-04-30T22:57:11.446Z,52.10
2023-04-30T23:00:27.089Z,51.50
2023-04-30T23:04:19.998Z,57.30
2023-04-30T23:08:09.512Z,64.90
2023-04-30T23:14:36.396Z,56.00
2023-04-30T23:17:58.673Z,55.60
2023-04-30T23:31:40.414Z,51.40
2023-04-30T23:34:39.177Z,52.10
2023-04-30T23:37:51.557Z,53.50
2023-04-30T23:41:01.034Z,55.20
2023-04-30T23:43:46.191Z,54.00
2023-04-30T23:46:29.059Z,50.60
2023-04-30T23:49:00.154Z,44.10
2023-04-30T23:51:42.911Z,46.10
2023-04-30T23:54:25.001Z,47.80
2023-04-30T23:56:58.983Z,49.40
2023-04-30T23:59:39.746Z,49.40
